Time,TemperatureF,DewpointF,PressureIn,WindDirection,WindDirectionDegrees,WindSpeedMPH,WindSpeedGustMPH,Humidity,HourlyPrecipIn,Conditions,Clouds,dailyrainin,SoftwareType,DateUTC
2013-04-02 00:06:00,65.2,61.0,30.78,SSW,210,3.0,-999.0,87,-99.99,,,0.00,weatherlink.com 1.10,2013-04-02 05:06:00,
2013-04-02 00:36:00,64.3,61.0,30.78,SSW,209,0.0,-999.0,88,-99.99,,,0.00,weatherlink.com 1.10,2013-04-02 05:36:00,
2013-04-02 00:51:00,63.9,60.0,30.79,SSW,205,0.0,-999.0,88,-99.99,,,0.00,weatherlink.com 1.10,2013-04-02 05:51:00,
2013-04-02 01:06:00,63.6,60.0,30.79,SSW,196,0.0,-999.0,89,-99.99,,,0.00,weatherlink.com 1.10,2013-04-02 06:06:00,
2013-04-02 01:21:00,63.1,60.0,30.79,SSW,196,0.0,-999.0,89,-99.99,,,0.00,weatherlink.com 1.10,2013-04-02 06:21:00,
2013-04-02 01:36:00,62.8,60.0,30.79,SSW,196,0.0,-999.0,90,-99.99,,,0.00,weatherlink.com 1.10,2013-04-02 06:36:00,
2013-04-02 02:06:00,62.5,60.0,30.78,SSW,196,0.0,-999.0,91,-99.99,,,0.00,weatherlink.com 1.10,2013-04-02 07:06:00,
2013-04-02 02:21:00,62.2,59.0,30.78,SSW,196,0.0,-999.0,90,-99.99,,,0.00,weatherlink.com 1.10,2013-04-02 07:21:00,
2013-04-02 02:36:00,61.9,59.0,30.78,SSW,196,2.0,-999.0,91,-99.99,,,0.00,weatherlink.com 1.10,2013-04-02 07:36:00,
2013-04-02 02:51:00,62.0,59.0,30.76,SSW,196,0.0,-999.0,91,-99.99,,,0.00,weatherlink.com 1.10,2013-04-02 07:51:00,
2013-04-02 03:06:00,61.6,59.0,30.77,SSW,196,0.0,-999.0,91,-99.99,,,0.00,weatherlink.com 1.10,2013-04-02 08:06:00,
2013-04-02 03:21:00,61.7,59.0,30.77,SSW,196,0.0,-999.0,91,-99.99,,,0.00,weatherlink.com 1.10,2013-04-02 08:21:00,
2013-04-02 03:37:00,60.9,58.0,30.77,SSW,196,0.0,-999.0,91,-99.99,,,0.00,weatherlink.com 1.10,2013-04-02 08:37:00,
2013-04-02 03:52:00,61.1,59.0,30.76,SSW,196,0.0,-999.0,92,-99.99,,,0.00,weatherlink.com 1.10,2013-04-02 08:52:00,
2013-04-02 04:07:00,61.9,60.0,30.75,SE,131,0.0,-999.0,93,-99.99,,,0.00,weatherlink.com 1.10,2013-04-02 09:07:00,
2013-04-02 04:22:00,62.2,60.0,30.74,SE,125,2.0,-999.0,92,-99.99,,,0.00,weatherlink.com 1.10,2013-04-02 09:22:00,
2013-04-02 04:37:00,62.4,60.0,30.74,ESE,117,0.0,-999.0,92,-99.99,,,0.00,weatherlink.com 1.10,2013-04-02 09:37:00,
2013-04-02 04:52:00,62.6,60.0,30.73,ESE,117,0.0,-999.0,92,-99.99,,,0.00,weatherlink.com 1.10,2013-04-02 09:52:00,
2013-04-02 05:07:00,63.0,60.0,30.72,East,98,0.0,-999.0,91,-99.99,,,0.00,weatherlink.com 1.10,2013-04-02 10:07:00,
2013-04-02 05:22:00,63.1,60.0,30.73,ESE,105,0.0,-999.0,90,-99.99,,,0.00,weatherlink.com 1.10,2013-04-02 10:22:00,
2013-04-02 05:37:00,63.3,60.0,30.73,East,95,4.0,-999.0,90,-99.99,,,0.00,weatherlink.com 1.10,2013-04-02 10:37:00,
2013-04-02 05:52:00,63.4,60.0,30.75,East,95,0.0,-999.0,89,-99.99,,,0.00,weatherlink.com 1.10,2013-04-02 10:52:00,
2013-04-02 06:07:00,63.1,60.0,30.75,East,95,0.0,-999.0,89,-99.99,,,0.00,weatherlink.com 1.10,2013-04-02 11:07:00,
2013-04-02 06:22:00,62.8,60.0,30.75,East,95,0.0,-999.0,89,-99.99,,,0.00,weatherlink.com 1.10,2013-04-02 11:22:00,
2013-04-02 06:37:00,62.5,60.0,30.76,East,95,0.0,-999.0,90,-99.99,,,0.00,weatherlink.com 1.10,2013-04-02 11:37:00,
2013-04-02 06:52:00,61.9,59.0,30.76,East,95,0.0,-999.0,90,-99.99,,,0.00,weatherlink.com 1.10,2013-04-02 11:52:00,
2013-04-02 07:07:00,61.3,58.0,30.77,East,95,0.0,-999.0,90,-99.99,,,0.00,weatherlink.com 1.10,2013-04-02 12:07:00,
2013-04-02 07:22:00,61.1,59.0,30.78,East,95,2.0,-999.0,91,-99.99,,,0.00,weatherlink.com 1.10,2013-04-02 12:22:00,
2013-04-02 07:37:00,61.2,59.0,30.78,East,95,0.0,-999.0,92,-99.99,,,0.00,weatherlink.com 1.10,2013-04-02 12:37:00,
2013-04-02 07:52:00,61.3,59.0,30.80,East,90,0.0,-999.0,92,-99.99,,,0.00,weatherlink.com 1.10,2013-04-02 12:52:00,
2013-04-02 08:07:00,61.8,60.0,30.80,North,355,0.0,-999.0,93,-99.99,,,0.00,weatherlink.com 1.10,2013-04-02 13:07:00,
2013-04-02 08:22:00,62.5,61.0,30.80,North,355,0.0,-999.0,93,-99.99,,,0.00,weatherlink.com 1.10,2013-04-02 13:22:00,
2013-04-02 08:37:00,63.0,61.0,30.80,ENE,60,0.0,-999.0,92,-99.99,,,0.00,weatherlink.com 1.10,2013-04-02 13:37:00,
2013-04-02 08:52:00,63.5,61.0,30.80,ENE,60,0.0,-999.0,92,-99.99,,,0.00,weatherlink.com 1.10,2013-04-02 13:52:00,
2013-04-02 09:07:00,64.1,62.0,30.79,East,96,1.0,-999.0,91,-99.99,,,0.00,weatherlink.com 1.10,2013-04-02 14:07:00,
2013-04-02 09:22:00,64.7,62.0,30.79,East,80,1.0,-999.0,90,-99.99,,,0.00,weatherlink.com 1.10,2013-04-02 14:22:00,
2013-04-02 09:37:00,65.5,63.0,30.79,ENE,69,4.0,-999.0,90,-99.99,,,0.00,weatherlink.com 1.10,2013-04-02 14:37:00,
2013-04-02 09:52:00,65.7,62.0,30.79,ESE,110,5.0,-999.0,88,-99.99,,,0.00,weatherlink.com 1.10,2013-04-02 14:52:00,
2013-04-02 10:07:00,65.7,62.0,30.79,ESE,108,3.0,-999.0,87,-99.99,,,0.00,weatherlink.com 1.10,2013-04-02 15:07:00,
2013-04-02 10:22:00,66.4,63.0,30.79,SE,127,3.0,-999.0,87,-99.99,,,0.00,weatherlink.com 1.10,2013-04-02 15:22:00,
2013-04-02 10:37:00,67.2,63.0,30.78,East,92,3.0,-999.0,85,-99.99,,,0.00,weatherlink.com 1.10,2013-04-02 15:37:00,
2013-04-02 11:07:00,67.0,62.0,30.79,ENE,67,1.0,-999.0,84,-99.99,,,0.00,weatherlink.com 1.10,2013-04-02 16:07:00,
2013-04-02 11:22:00,67.1,62.0,30.79,East,80,1.0,-999.0,84,-99.99,,,0.00,weatherlink.com 1.10,2013-04-02 16:22:00,
2013-04-02 11:37:00,67.0,62.0,30.81,ENE,71,0.0,-999.0,85,-99.99,,,0.00,weatherlink.com 1.10,2013-04-02 16:37:00,
2013-04-02 11:52:00,66.7,62.0,30.81,ENE,63,0.0,-999.0,84,-99.99,,,0.00,weatherlink.com 1.10,2013-04-02 16:52:00,
2013-04-02 12:07:00,66.6,62.0,30.81,ENE,75,3.0,-999.0,85,-99.99,,,0.00,weatherlink.com 1.10,2013-04-02 17:07:00,
2013-04-02 12:22:00,66.6,63.0,30.80,East,87,4.0,-999.0,87,-99.99,,,0.01,weatherlink.com 1.10,2013-04-02 17:22:00,
2013-04-02 12:37:00,66.2,62.0,30.80,East,98,3.0,-999.0,87,-99.99,,,0.01,weatherlink.com 1.10,2013-04-02 17:37:00,
2013-04-02 12:52:00,66.6,63.0,30.78,ENE,66,4.0,-999.0,87,-99.99,,,0.01,weatherlink.com 1.10,2013-04-02 17:52:00,
2013-04-02 13:07:00,67.3,63.0,30.78,ESE,113,0.0,-999.0,86,-99.99,,,0.01,weatherlink.com 1.10,2013-04-02 18:07:00,
2013-04-02 13:22:00,68.2,63.0,30.77,East,98,4.0,-999.0,84,-99.99,,,0.01,weatherlink.com 1.10,2013-04-02 18:22:00,
2013-04-02 13:37:00,69.7,64.0,30.76,SE,126,0.0,-999.0,83,-99.99,,,0.01,weatherlink.com 1.10,2013-04-02 18:37:00,
2013-04-02 14:07:00,71.3,65.0,30.74,ESE,115,6.0,-999.0,79,-99.99,,,0.01,weatherlink.com 1.10,2013-04-02 19:07:00,
2013-04-02 14:22:00,71.8,65.0,30.74,East,94,5.0,-999.0,78,-99.99,,,0.01,weatherlink.com 1.10,2013-04-02 19:22:00,
2013-04-02 14:37:00,71.9,64.0,30.73,East,100,0.0,-999.0,77,-99.99,,,0.01,weatherlink.com 1.10,2013-04-02 19:37:00,
2013-04-02 14:52:00,72.0,64.0,30.73,ESE,120,3.0,-999.0,77,-99.99,,,0.01,weatherlink.com 1.10,2013-04-02 19:52:00,
2013-04-02 15:07:00,71.2,64.0,30.72,East,101,5.0,-999.0,78,-99.99,,,0.01,weatherlink.com 1.10,2013-04-02 20:07:00,
2013-04-02 15:22:00,70.6,64.0,30.71,ENE,78,0.0,-999.0,79,-99.99,,,0.01,weatherlink.com 1.10,2013-04-02 20:22:00,
2013-04-02 15:37:00,70.7,64.0,30.70,ESE,103,0.0,-999.0,79,-99.99,,,0.01,weatherlink.com 1.10,2013-04-02 20:37:00,
2013-04-02 15:52:00,70.5,64.0,30.71,ENE,76,6.0,-999.0,79,-99.99,,,0.01,weatherlink.com 1.10,2013-04-02 20:52:00,
2013-04-02 16:07:00,69.5,64.0,30.70,ESE,123,0.0,-999.0,82,-99.99,,,0.01,weatherlink.com 1.10,2013-04-02 21:07:00,
2013-04-02 16:22:00,69.3,64.0,30.70,ESE,106,0.0,-999.0,82,-99.99,,,0.01,weatherlink.com 1.10,2013-04-02 21:22:00,
2013-04-02 16:37:00,69.3,64.0,30.69,East,87,0.0,-999.0,82,-99.99,,,0.01,weatherlink.com 1.10,2013-04-02 21:37:00,
2013-04-02 16:52:00,69.3,64.0,30.69,ESE,104,0.0,-999.0,83,-99.99,,,0.01,weatherlink.com 1.10,2013-04-02 21:52:00,
2013-04-02 17:07:00,69.1,64.0,30.69,ESE,104,0.0,-999.0,84,-99.99,,,0.01,weatherlink.com 1.10,2013-04-02 22:07:00,
2013-04-02 17:22:00,68.2,64.0,30.67,ESE,104,0.0,-999.0,86,-99.99,,,0.18,weatherlink.com 1.10,2013-04-02 22:22:00,
2013-04-02 17:37:00,67.3,64.0,30.66,East,90,0.0,-999.0,89,-99.99,,,0.18,weatherlink.com 1.10,2013-04-02 22:37:00,
2013-04-02 17:53:00,66.9,64.0,30.64,ENE,59,4.0,-999.0,91,-99.99,,,0.19,weatherlink.com 1.10,2013-04-02 22:53:00,
2013-04-02 18:08:00,66.8,64.0,30.64,ENE,65,4.0,-999.0,91,-99.99,,,0.19,weatherlink.com 1.10,2013-04-02 23:08:00,
2013-04-02 18:23:00,66.9,64.0,30.64,East,80,2.0,-999.0,91,-99.99,,,0.19,weatherlink.com 1.10,2013-04-02 23:23:00,
2013-04-02 19:07:00,66.7,63.0,30.65,East,90,3.0,-999.0,89,-99.99,,,0.19,weatherlink.com 1.10,2013-04-03 00:07:00,
2013-04-02 19:23:00,66.2,63.0,30.66,NNE,29,4.0,-999.0,89,-99.99,,,0.19,weatherlink.com 1.10,2013-04-03 00:23:00,
2013-04-02 19:37:00,65.8,63.0,30.65,NNE,31,0.0,-999.0,90,-99.99,,,0.19,weatherlink.com 1.10,2013-04-03 00:37:00,
2013-04-02 19:52:00,65.5,63.0,30.67,NNE,15,0.0,-999.0,90,-99.99,,,0.19,weatherlink.com 1.10,2013-04-03 00:52:00,
2013-04-02 20:07:00,65.2,62.0,30.68,SW,234,3.0,-999.0,90,-99.99,,,0.29,weatherlink.com 1.10,2013-04-03 01:07:00,
2013-04-02 20:39:00,64.2,62.0,30.73,NNW,346,8.0,-999.0,91,-99.99,,,0.82,weatherlink.com 1.10,2013-04-03 01:39:00,
2013-04-02 20:53:00,62.9,61.0,30.74,NNE,22,7.0,-999.0,92,-99.99,,,0.87,weatherlink.com 1.10,2013-04-03 01:53:00,
2013-04-02 21:10:00,62.3,60.0,30.77,NE,51,0.0,-999.0,92,-99.99,,,0.89,weatherlink.com 1.10,2013-04-03 02:10:00,
2013-04-02 21:38:00,61.2,59.0,30.75,North,355,0.0,-999.0,93,-99.99,,,1.01,weatherlink.com 1.10,2013-04-03 02:38:00,
2013-04-02 21:53:00,61.0,59.0,30.74,NE,46,2.0,-999.0,93,-99.99,,,1.06,weatherlink.com 1.10,2013-04-03 02:53:00,
2013-04-02 22:10:00,60.8,59.0,30.73,ESE,104,3.0,-999.0,93,-99.99,,,1.09,weatherlink.com 1.10,2013-04-03 03:10:00,
2013-04-02 22:23:00,60.5,59.0,30.70,ENE,61,5.0,-999.0,93,-99.99,,,1.13,weatherlink.com 1.10,2013-04-03 03:23:00,